createdAt,value
2023-02-18T00:02:48.360Z,10.30
2023-02-18T00:07:52.484Z,10.30
2023-02-18T00:12:55.885Z,10.30
2023-02-18T00:18:00.682Z,10.30
2023-02-18T00:23:04.097Z,10.40
2023-02-18T00:28:07.432Z,10.30
2023-02-18T00:33:12.100Z,10.40
2023-02-18T00:38:15.406Z,10.30
2023-02-18T00:43:19.743Z,10.20
2023-02-18T00:48:24.560Z,10.20
2023-02-18T00:53:28.046Z,10.30
2023-02-18T00:58:33.126Z,10.30
2023-02-18T01:03:38.421Z,10.20
2023-02-18T01:08:42.242Z,10.20
2023-02-18T01:13:45.633Z,10.20
2023-02-18T01:18:50.335Z,10.20
2023-02-18T01:23:53.745Z,10.00
2023-02-18T01:28:57.089Z,10.00
2023-02-18T01:34:02.511Z,10.10
2023-02-18T01:39:07.004Z,10.20
2023-02-18T01:44:13.451Z,10.20
2023-02-18T01:49:25.092Z,10.10
2023-02-18T01:54:33.010Z,9.90
2023-02-18T01:59:40.255Z,9.90
2023-02-18T02:04:45.891Z,9.80
2023-02-18T02:09:52.212Z,9.80
2023-02-18T02:15:30.320Z,9.70
2023-02-18T02:21:06.167Z,9.60
2023-02-18T02:26:52.117Z,9.40
2023-02-18T02:32:10.748Z,9.30
2023-02-18T02:37:19.542Z,9.30
2023-02-18T02:42:31.046Z,9.30
2023-02-18T02:47:41.534Z,9.20
2023-02-18T02:52:51.974Z,9.30
2023-02-18T02:57:58.133Z,9.40
2023-02-18T03:03:34.475Z,9.50
2023-02-18T03:08:48.382Z,9.60
2023-02-18T03:14:03.831Z,9.70
2023-02-18T03:19:16.144Z,9.80
2023-02-18T03:24:25.748Z,9.60
2023-02-18T03:29:30.134Z,9.70
2023-02-18T03:34:39.522Z,9.60
2023-02-18T03:39:48.166Z,9.60
2023-02-18T03:44:52.475Z,9.60
2023-02-18T03:49:57.794Z,9.40
2023-02-18T03:55:03.032Z,9.30
2023-02-18T04:00:08.702Z,9.10
2023-02-18T04:05:12.414Z,8.90
2023-02-18T04:10:17.393Z,8.70
2023-02-18T04:15:20.617Z,8.60
2023-02-18T04:20:24.209Z,8.60
2023-02-18T04:25:29.024Z,8.50
2023-02-18T04:30:36.017Z,8.40
2023-02-18T04:35:41.986Z,8.50
2023-02-18T04:40:46.734Z,8.50
2023-02-18T04:45:50.157Z,8.60
2023-02-18T04:50:53.510Z,8.60
2023-02-18T04:55:58.750Z,8.40
2023-02-18T05:01:05.925Z,8.40
2023-02-18T05:06:09.713Z,8.40
2023-02-18T05:11:14.605Z,8.30
2023-02-18T05:16:28.180Z,8.30
2023-02-18T05:21:31.980Z,8.30
2023-02-18T05:26:37.144Z,8.30
2023-02-18T05:31:40.641Z,8.30
2023-02-18T05:36:44.036Z,8.40
2023-02-18T05:41:48.608Z,8.40
2023-02-18T05:46:52.105Z,8.50
2023-02-18T05:51:56.569Z,8.50
2023-02-18T05:57:01.326Z,8.50
2023-02-18T06:02:04.718Z,8.40
2023-02-18T06:07:08.151Z,8.30
2023-02-18T06:12:12.811Z,8.50
2023-02-18T06:17:16.376Z,8.60
2023-02-18T06:22:19.725Z,8.80
2023-02-18T06:27:24.531Z,8.90
2023-02-18T06:32:27.887Z,9.00
2023-02-18T06:37:31.200Z,9.00
2023-02-18T06:42:36.866Z,9.10
2023-02-18T06:47:41.193Z,9.20
2023-02-18T06:52:44.447Z,9.30
2023-02-18T06:57:51.113Z,9.20
2023-02-18T07:02:54.424Z,9.30
2023-02-18T07:08:03.535Z,9.50
2023-02-18T07:13:08.893Z,9.60
2023-02-18T07:18:12.350Z,9.70
2023-02-18T07:23:15.726Z,9.90
2023-02-18T07:28:20.551Z,9.90
2023-02-18T07:33:24.918Z,10.10
2023-02-18T07:38:29.142Z,10.20
2023-02-18T07:43:33.850Z,10.30
2023-02-18T07:48:37.667Z,10.30
2023-02-18T07:53:42.362Z,10.50
2023-02-18T07:58:51.370Z,10.60
2023-02-18T08:03:54.784Z,10.90
2023-02-18T08:08:59.383Z,11.00
2023-02-18T08:14:04.285Z,11.10
2023-02-18T08:19:10.078Z,11.20
2023-02-18T08:24:14.614Z,11.20
2023-02-18T08:29:33.835Z,11.00
2023-02-18T08:34:38.349Z,11.00
2023-02-18T08:39:41.873Z,11.00
2023-02-18T08:44:47.628Z,11.00
2023-02-18T08:49:54.368Z,11.10
2023-02-18T08:55:05.481Z,11.20
2023-02-18T09:00:14.500Z,11.40
2023-02-18T09:05:19.258Z,11.30
2023-02-18T09:10:23.020Z,11.20
2023-02-18T09:15:28.074Z,11.20
2023-02-18T09:20:32.605Z,11.30
2023-02-18T09:25:36.178Z,11.20
2023-02-18T09:30:42.430Z,11.30
2023-02-18T09:35:47.945Z,11.30
2023-02-18T09:40:54.907Z,11.60
2023-02-18T09:46:01.553Z,11.90
2023-02-18T09:51:05.347Z,12.00
2023-02-18T09:56:11.622Z,12.30
2023-02-18T10:01:21.831Z,12.50
2023-02-18T10:06:28.665Z,12.50
2023-02-18T10:11:34.182Z,12.70
2023-02-18T10:16:41.431Z,13.30
2023-02-18T10:21:45.684Z,13.50
2023-02-18T10:26:49.930Z,13.50
2023-02-18T10:32:00.862Z,13.10
2023-02-18T10:37:15.929Z,13.10
2023-02-18T10:42:31.456Z,12.70
2023-02-18T10:47:40.892Z,12.40
2023-02-18T10:52:47.352Z,12.20
2023-02-18T10:57:53.906Z,12.20
2023-02-18T11:03:20.881Z,12.20
2023-02-18T11:08:27.708Z,12.10
2023-02-18T11:13:32.910Z,12.00
2023-02-18T11:19:15.553Z,12.00
2023-02-18T11:24:24.302Z,12.10
2023-02-18T11:29:31.740Z,12.10
2023-02-18T11:34:36.983Z,12.30
2023-02-18T11:39:55.277Z,12.40
2023-02-18T11:45:29.048Z,12.60
2023-02-18T11:50:35.557Z,12.40
2023-02-18T11:55:55.541Z,12.30
2023-02-18T12:01:06.650Z,12.20
2023-02-18T12:06:21.532Z,12.20
2023-02-18T12:11:32.946Z,12.20
2023-02-18T12:17:20.824Z,12.10
2023-02-18T12:22:43.594Z,12.10
2023-02-18T12:28:01.981Z,12.10
2023-02-18T12:33:14.638Z,12.30
2023-02-18T12:38:47.441Z,12.40
2023-02-18T12:44:04.394Z,12.50
2023-02-18T12:49:34.190Z,12.40
2023-02-18T12:55:08.109Z,12.50
2023-02-18T13:00:50.222Z,12.50
2023-02-18T13:06:03.594Z,12.50
2023-02-18T13:11:21.030Z,12.40
2023-02-18T13:16:28.036Z,12.40
2023-02-18T13:21:33.850Z,12.50
2023-02-18T13:26:37.773Z,12.70
2023-02-18T13:31:53.712Z,12.60
2023-02-18T13:37:06.927Z,12.50
2023-02-18T13:42:28.692Z,12.50
2023-02-18T13:47:47.402Z,12.60
2023-02-18T13:53:36.808Z,12.60
2023-02-18T13:58:46.510Z,12.80
2023-02-18T14:03:59.163Z,12.90
2023-02-18T14:09:22.363Z,13.00
2023-02-18T14:14:38.624Z,12.90
2023-02-18T14:19:43.472Z,12.70
2023-02-18T14:24:50.766Z,12.60
2023-02-18T14:30:05.875Z,12.40
2023-02-18T14:35:27.954Z,12.50
2023-02-18T14:40:52.299Z,12.80
2023-02-18T14:46:10.772Z,12.70
2023-02-18T14:51:30.736Z,12.90
2023-02-18T14:57:07.504Z,13.20
2023-02-18T15:02:27.912Z,13.30
2023-02-18T15:08:04.911Z,13.10
2023-02-18T15:13:15.446Z,12.90
2023-02-18T15:18:32.978Z,12.80
2023-02-18T15:23:41.255Z,12.70
2023-02-18T15:28:56.442Z,12.70
2023-02-18T15:34:01.771Z,12.80
2023-02-18T15:39:07.437Z,12.70
2023-02-18T15:44:18.052Z,12.60
2023-02-18T15:49:23.821Z,12.50
2023-02-18T15:54:29.082Z,12.40
2023-02-18T15:59:35.303Z,12.20
2023-02-18T16:04:41.329Z,12.10
2023-02-18T16:09:46.251Z,12.00
2023-02-18T16:14:55.497Z,11.90
2023-02-18T16:20:18.434Z,11.80
2023-02-18T16:25:45.748Z,11.60
2023-02-18T16:30:50.151Z,11.50
2023-02-18T16:35:53.753Z,11.30
2023-02-18T16:41:01.864Z,11.20
2023-02-18T16:46:10.624Z,11.20
2023-02-18T16:51:16.856Z,11.30
2023-02-18T16:56:24.941Z,11.30
2023-02-18T17:01:31.395Z,11.30
2023-02-18T17:06:35.376Z,11.40
2023-02-18T17:11:41.296Z,11.40
2023-02-18T17:17:07.541Z,11.30
2023-02-18T17:22:18.826Z,11.30
2023-02-18T17:27:23.445Z,11.30
2023-02-18T17:32:27.288Z,11.30
2023-02-18T17:37:30.672Z,11.30
2023-02-18T17:42:36.632Z,11.20
2023-02-18T17:47:41.034Z,11.20
2023-02-18T17:52:55.516Z,11.00
2023-02-18T17:58:00.376Z,11.10
2023-02-18T18:03:04.263Z,11.00
2023-02-18T18:08:08.506Z,10.90
2023-02-18T18:13:19.673Z,10.90
2023-02-18T18:18:25.152Z,11.00
2023-02-18T18:23:30.068Z,10.80
2023-02-18T18:28:37.264Z,10.80
2023-02-18T18:33:44.064Z,10.70
2023-02-18T18:38:48.618Z,10.50
2023-02-18T18:43:53.268Z,10.80
2023-02-18T18:48:56.744Z,10.70
2023-02-18T18:54:00.421Z,10.50
2023-02-18T18:59:05.001Z,10.50
2023-02-18T19:04:08.380Z,10.60
2023-02-18T19:09:13.891Z,10.70
2023-02-18T19:14:23.036Z,10.70
2023-02-18T19:19:28.450Z,10.70
2023-02-18T19:24:31.808Z,10.70
2023-02-18T19:29:36.698Z,10.70
2023-02-18T19:34:39.930Z,10.70
2023-02-18T19:39:43.472Z,10.60
2023-02-18T19:44:48.222Z,10.60
2023-02-18T19:49:51.759Z,10.80
2023-02-18T19:54:58.271Z,10.70
2023-02-18T20:00:03.904Z,10.70
2023-02-18T20:05:08.223Z,10.70
2023-02-18T20:10:14.004Z,10.80
2023-02-18T20:15:18.866Z,10.70
2023-02-18T20:20:23.550Z,10.70
2023-02-18T20:25:29.448Z,10.60
2023-02-18T20:30:34.363Z,10.60
2023-02-18T20:35:37.931Z,10.60
2023-02-18T20:40:45.196Z,10.60
2023-02-18T20:45:53.158Z,10.60
2023-02-18T20:50:56.481Z,10.70
2023-02-18T20:56:00.002Z,10.60
2023-02-18T21:01:07.310Z,10.60
2023-02-18T21:06:17.159Z,10.50
2023-02-18T21:11:27.028Z,10.50
2023-02-18T21:16:32.440Z,10.40
2023-02-18T21:21:36.078Z,10.30
2023-02-18T21:26:39.926Z,10.30
2023-02-18T21:31:45.035Z,10.20
2023-02-18T21:36:48.604Z,10.10
2023-02-18T21:41:55.258Z,10.00
2023-02-18T21:47:00.069Z,9.90
2023-02-18T21:52:09.594Z,9.80
2023-02-18T21:57:16.193Z,9.70
2023-02-18T22:02:22.597Z,9.80
2023-02-18T22:07:27.897Z,9.70
2023-02-18T22:12:32.123Z,9.70
2023-02-18T22:17:36.908Z,9.50
2023-02-18T22:22:40.434Z,9.50
2023-02-18T22:27:43.794Z,9.60
2023-02-18T22:32:48.285Z,9.60
2023-02-18T22:37:51.556Z,9.50
2023-02-18T22:42:54.792Z,9.40
2023-02-18T22:47:59.404Z,9.40
2023-02-18T22:53:02.697Z,9.40
2023-02-18T22:58:06.057Z,9.30
2023-02-18T23:03:10.710Z,9.20
2023-02-18T23:08:14.013Z,9.20
2023-02-18T23:13:17.245Z,9.20
2023-02-18T23:18:21.880Z,9.20
2023-02-18T23:23:25.180Z,9.20
2023-02-18T23:28:29.116Z,9.10
2023-02-18T23:33:33.746Z,9.20
2023-02-18T23:38:37.029Z,9.20
2023-02-18T23:43:40.283Z,9.10
2023-02-18T23:48:45.211Z,9.10
2023-02-18T23:53:48.631Z,9.10
2023-02-18T23:58:54.914Z,9.20
